Airfield :
LOGIN :

Register | Disclaimer

   EN    FR    IT 

 










Legend :    VFR   Marginal VFR   IFR   Intensive IFR   Very Intensive IFR
Visi :
Ceiling :
>= 8 km
>= 3000ft
5 to 8 km
1000 to 3000 ft
1500m to 5 km
500 to 1000 ft
800 to 1500m
200 to 500 ft
< 800m
< 200 ft
Symbols :   Thunderstorms  Fog  Heavy snow  Heavy precipitations  Wind > 20 kt
SIGMETs :     Misc.  Thunderstorms  Icing  Turbulence  Mountain Waves  Volcanic Ashes






- Airport Elevation : 26 ft
- IATA code : BIA


LFKB - Bastia

CURRENT METAR :
  • 071530Z AUTO 08005KT 050V120 CAVOK 23/16 Q1021 NOSIG

EXPIRED METARs :
  • 071500Z AUTO 10004KT 050V140 CAVOK 24/16 Q1021 NOSIG
  • 071430Z AUTO 07004KT 350V140 CAVOK 24/16 Q1021 NOSIG
  • 071400Z AUTO 07005KT 020V120 CAVOK 24/16 Q1022 NOSIG
  • 071330Z AUTO 06005KT 010V100 CAVOK 25/15 Q1022 NOSIG
  • 071300Z AUTO 07005KT 020V160 CAVOK 25/16 Q1022 NOSIG
  • 071230Z AUTO 06005KT 350V120 CAVOK 24/16 Q1022 NOSIG

TAF TAF LFKB
Valid from the 07 at 15:00 until the 08 at 15:00 UTC


071400Z 0715/0815 06006KT CAVOK TX24/0812Z TN14/0805Z
PROB30
TEMPO 0721/0807 4000 BR
ATIS : +33 4 95 59 19 40



MET'MAP, your aeronautical weather chart ! - Copyright ORBIFLY December 2007 - Disclaimer

ORBIFLY MET'MAP TEAM :

Programming & Development : Alexandra Zaïnal
Original concept : Baudouin d'Aumeries
Technical & hardware support : Manuel Goepfert
Assistance : Marc-Olivier Méhu




SOURCES & CREDITS :

   NOAA